sensor_id;sensor_type;location;lat;lon;timestamp;P1;durP1;ratioP1;P2;durP2;ratioP2
9228;SDS011;4649;42.644;23.284;2023-04-19T00:41:11;1.60;;;1.50;;
9228;SDS011;4649;42.644;23.284;2023-04-19T01:41:32;1.37;;;1.37;;
9228;SDS011;4649;42.644;23.284;2023-04-19T01:51:02;2.70;;;1.53;;
9228;SDS011;4649;42.644;23.284;2023-04-19T02:42:30;3.57;;;2.40;;
9228;SDS011;4649;42.644;23.284;2023-04-19T03:14:31;2.60;;;2.40;;
9228;SDS011;4649;42.644;23.284;2023-04-19T03:20:46;2.63;;;2.53;;
9228;SDS011;4649;42.644;23.284;2023-04-19T03:24:05;2.50;;;2.40;;
9228;SDS011;4649;42.644;23.284;2023-04-19T04:56:36;3.00;;;2.37;;
9228;SDS011;4649;42.644;23.284;2023-04-19T04:59:19;3.10;;;2.90;;
9228;SDS011;4649;42.644;23.284;2023-04-19T05:02:08;4.07;;;2.60;;
9228;SDS011;4649;42.644;23.284;2023-04-19T05:22:26;3.73;;;2.53;;
9228;SDS011;4649;42.644;23.284;2023-04-19T06:31:18;2.30;;;2.20;;
9228;SDS011;4649;42.644;23.284;2023-04-19T08:10:45;2.03;;;1.93;;
9228;SDS011;4649;42.644;23.284;2023-04-19T09:36:25;3.43;;;2.07;;
9228;SDS011;4649;42.644;23.284;2023-04-19T09:38:55;1.90;;;1.80;;
9228;SDS011;4649;42.644;23.284;2023-04-19T09:42:00;1.50;;;1.50;;
9228;SDS011;4649;42.644;23.284;2023-04-19T09:44:36;1.40;;;1.40;;
9228;SDS011;4649;42.644;23.284;2023-04-19T09:47:20;1.60;;;1.60;;
9228;SDS011;4649;42.644;23.284;2023-04-19T09:50:02;1.63;;;1.53;;
9228;SDS011;4649;42.644;23.284;2023-04-19T09:52:34;1.83;;;1.77;;
9228;SDS011;4649;42.644;23.284;2023-04-19T09:55:03;2.07;;;1.97;;
9228;SDS011;4649;42.644;23.284;2023-04-19T09:57:31;1.60;;;1.60;;
9228;SDS011;4649;42.644;23.284;2023-04-19T09:59:59;1.90;;;1.80;;
9228;SDS011;4649;42.644;23.284;2023-04-19T10:02:31;2.23;;;1.60;;
9228;SDS011;4649;42.644;23.284;2023-04-19T10:04:58;1.40;;;1.30;;
9228;SDS011;4649;42.644;23.284;2023-04-19T10:07:25;1.37;;;1.37;;
9228;SDS011;4649;42.644;23.284;2023-04-19T10:09:56;1.50;;;1.47;;
9228;SDS011;4649;42.644;23.284;2023-04-19T10:12:24;5.30;;;1.60;;
9228;SDS011;4649;42.644;23.284;2023-04-19T10:18:19;1.87;;;1.77;;
9228;SDS011;4649;42.644;23.284;2023-04-19T10:21:23;1.37;;;1.37;;
9228;SDS011;4649;42.644;23.284;2023-04-19T10:24:30;1.47;;;1.47;;
9228;SDS011;4649;42.644;23.284;2023-04-19T10:27:10;1.30;;;1.30;;
9228;SDS011;4649;42.644;23.284;2023-04-19T10:32:25;4.57;;;1.50;;
9228;SDS011;4649;42.644;23.284;2023-04-19T10:34:53;1.33;;;1.33;;
9228;SDS011;4649;42.644;23.284;2023-04-19T10:37:20;1.73;;;1.63;;
9228;SDS011;4649;42.644;23.284;2023-04-19T10:39:51;1.50;;;1.40;;
9228;SDS011;4649;42.644;23.284;2023-04-19T10:42:19;3.37;;;1.50;;
9228;SDS011;4649;42.644;23.284;2023-04-19T10:48:02;1.50;;;1.40;;
9228;SDS011;4649;42.644;23.284;2023-04-19T10:50:29;1.10;;;1.10;;
9228;SDS011;4649;42.644;23.284;2023-04-19T10:53:57;1.00;;;1.00;;
9228;SDS011;4649;42.644;23.284;2023-04-19T10:59:32;8.43;;;1.40;;
9228;SDS011;4649;42.644;23.284;2023-04-19T11:02:00;1.27;;;1.23;;
9228;SDS011;4649;42.644;23.284;2023-04-19T11:07:38;1.60;;;1.60;;
9228;SDS011;4649;42.644;23.284;2023-04-19T11:10:08;1.53;;;1.53;;
9228;SDS011;4649;42.644;23.284;2023-04-19T11:12:36;1.57;;;1.47;;
9228;SDS011;4649;42.644;23.284;2023-04-19T11:15:21;1.53;;;1.47;;
9228;SDS011;4649;42.644;23.284;2023-04-19T11:17:57;1.37;;;1.37;;
9228;SDS011;4649;42.644;23.284;2023-04-19T11:20:41;6.13;;;2.27;;
9228;SDS011;4649;42.644;23.284;2023-04-19T11:23:14;1.77;;;1.77;;
9228;SDS011;4649;42.644;23.284;2023-04-19T11:25:43;1.70;;;1.60;;
9228;SDS011;4649;42.644;23.284;2023-04-19T11:28:18;1.60;;;1.50;;
9228;SDS011;4649;42.644;23.284;2023-04-19T11:30:48;1.40;;;1.40;;
9228;SDS011;4649;42.644;23.284;2023-04-19T11:33:15;1.57;;;1.47;;
9228;SDS011;4649;42.644;23.284;2023-04-19T11:35:48;1.50;;;1.47;;
9228;SDS011;4649;42.644;23.284;2023-04-19T11:38:25;2.73;;;1.63;;
9228;SDS011;4649;42.644;23.284;2023-04-19T11:41:04;2.43;;;2.30;;
9228;SDS011;4649;42.644;23.284;2023-04-19T11:43:31;2.07;;;1.97;;
9228;SDS011;4649;42.644;23.284;2023-04-19T11:46:05;1.90;;;1.80;;
9228;SDS011;4649;42.644;23.284;2023-04-19T11:48:36;3.07;;;2.20;;
9228;SDS011;4649;42.644;23.284;2023-04-19T11:51:05;3.17;;;2.00;;
9228;SDS011;4649;42.644;23.284;2023-04-19T11:53:34;1.50;;;1.50;;
9228;SDS011;4649;42.644;23.284;2023-04-19T11:56:02;1.47;;;1.43;;
9228;SDS011;4649;42.644;23.284;2023-04-19T11:58:32;1.80;;;1.80;;
9228;SDS011;4649;42.644;23.284;2023-04-19T12:01:10;1.60;;;1.50;;
9228;SDS011;4649;42.644;23.284;2023-04-19T12:03:44;1.67;;;1.67;;
9228;SDS011;4649;42.644;23.284;2023-04-19T12:06:15;1.17;;;1.17;;
9228;SDS011;4649;42.644;23.284;2023-04-19T12:08:44;1.40;;;1.40;;
9228;SDS011;4649;42.644;23.284;2023-04-19T12:11:18;1.13;;;1.13;;
9228;SDS011;4649;42.644;23.284;2023-04-19T12:14:11;1.03;;;1.03;;
9228;SDS011;4649;42.644;23.284;2023-04-19T12:16:53;1.20;;;1.20;;
9228;SDS011;4649;42.644;23.284;2023-04-19T12:19:52;1.60;;;1.50;;
9228;SDS011;4649;42.644;23.284;2023-04-19T12:25:18;0.97;;;0.97;;
9228;SDS011;4649;42.644;23.284;2023-04-19T12:27:45;1.20;;;1.20;;
9228;SDS011;4649;42.644;23.284;2023-04-19T12:30:12;3.10;;;1.13;;
9228;SDS011;4649;42.644;23.284;2023-04-19T12:32:41;3.17;;;1.30;;
9228;SDS011;4649;42.644;23.284;2023-04-19T12:35:08;1.10;;;1.10;;
9228;SDS011;4649;42.644;23.284;2023-04-19T12:41:13;1.40;;;1.40;;
9228;SDS011;4649;42.644;23.284;2023-04-19T12:44:16;1.77;;;1.67;;
9228;SDS011;4649;42.644;23.284;2023-04-19T12:46:44;1.90;;;1.80;;
9228;SDS011;4649;42.644;23.284;2023-04-19T12:49:16;1.40;;;1.40;;
9228;SDS011;4649;42.644;23.284;2023-04-19T12:51:46;2.43;;;2.33;;
9228;SDS011;4649;42.644;23.284;2023-04-19T12:57:47;3.27;;;3.13;;
9228;SDS011;4649;42.644;23.284;2023-04-19T16:06:38;2.67;;;2.47;;
9228;SDS011;4649;42.644;23.284;2023-04-19T16:12:26;2.40;;;2.30;;
9228;SDS011;4649;42.644;23.284;2023-04-19T16:42:57;2.40;;;2.30;;
9228;SDS011;4649;42.644;23.284;2023-04-19T16:46:05;2.37;;;2.00;;
9228;SDS011;4649;42.644;23.284;2023-04-19T16:49:25;2.10;;;2.00;;
9228;SDS011;4649;42.644;23.284;2023-04-19T17:12:41;5.50;;;5.10;;
9228;SDS011;4649;42.644;23.284;2023-04-19T17:15:47;6.60;;;5.47;;
9228;SDS011;4649;42.644;23.284;2023-04-19T17:26:30;4.50;;;4.23;;
9228;SDS011;4649;42.644;23.284;2023-04-19T17:29:04;4.93;;;4.53;;
9228;SDS011;4649;42.644;23.284;2023-04-19T17:31:32;7.43;;;6.87;;
9228;SDS011;4649;42.644;23.284;2023-04-19T17:33:59;8.13;;;7.63;;
9228;SDS011;4649;42.644;23.284;2023-04-19T17:36:32;7.17;;;6.67;;
9228;SDS011;4649;42.644;23.284;2023-04-19T17:39:13;7.10;;;6.33;;
9228;SDS011;4649;42.644;23.284;2023-04-19T17:41:41;7.10;;;5.90;;
9228;SDS011;4649;42.644;23.284;2023-04-19T17:44:09;6.73;;;6.40;;
9228;SDS011;4649;42.644;23.284;2023-04-19T17:46:37;8.20;;;7.07;;
9228;SDS011;4649;42.644;23.284;2023-04-19T17:49:05;6.57;;;6.10;;
9228;SDS011;4649;42.644;23.284;2023-04-19T17:51:34;6.80;;;6.33;;
9228;SDS011;4649;42.644;23.284;2023-04-19T17:54:02;6.17;;;5.77;;
9228;SDS011;4649;42.644;23.284;2023-04-19T17:56:30;5.50;;;5.00;;
9228;SDS011;4649;42.644;23.284;2023-04-19T17:59:03;5.43;;;5.13;;
9228;SDS011;4649;42.644;23.284;2023-04-19T18:01:49;7.00;;;6.53;;
9228;SDS011;4649;42.644;23.284;2023-04-19T18:04:16;7.00;;;6.50;;
9228;SDS011;4649;42.644;23.284;2023-04-19T18:06:58;8.03;;;5.53;;
9228;SDS011;4649;42.644;23.284;2023-04-19T18:09:25;5.67;;;5.17;;
9228;SDS011;4649;42.644;23.284;2023-04-19T18:11:53;6.60;;;5.40;;
9228;SDS011;4649;42.644;23.284;2023-04-19T18:14:25;6.10;;;5.60;;
9228;SDS011;4649;42.644;23.284;2023-04-19T18:16:53;6.07;;;5.23;;
9228;SDS011;4649;42.644;23.284;2023-04-19T18:19:20;5.60;;;5.30;;
9228;SDS011;4649;42.644;23.284;2023-04-19T18:22:02;6.33;;;5.37;;
9228;SDS011;4649;42.644;23.284;2023-04-19T18:24:33;6.03;;;5.73;;
9228;SDS011;4649;42.644;23.284;2023-04-19T18:27:15;6.20;;;5.80;;
9228;SDS011;4649;42.644;23.284;2023-04-19T18:29:52;6.07;;;5.67;;
9228;SDS011;4649;42.644;23.284;2023-04-19T18:32:22;6.17;;;5.67;;
9228;SDS011;4649;42.644;23.284;2023-04-19T18:35:24;5.70;;;5.40;;
9228;SDS011;4649;42.644;23.284;2023-04-19T18:38:25;5.57;;;5.27;;
9228;SDS011;4649;42.644;23.284;2023-04-19T18:44:00;5.87;;;5.57;;
9228;SDS011;4649;42.644;23.284;2023-04-19T18:46:34;5.80;;;5.50;;
9228;SDS011;4649;42.644;23.284;2023-04-19T18:49:07;5.40;;;5.10;;
9228;SDS011;4649;42.644;23.284;2023-04-19T18:51:56;5.63;;;5.13;;
9228;SDS011;4649;42.644;23.284;2023-04-19T18:54:32;5.43;;;5.03;;
9228;SDS011;4649;42.644;23.284;2023-04-19T18:57:01;6.63;;;6.20;;
9228;SDS011;4649;42.644;23.284;2023-04-19T18:59:33;6.87;;;6.30;;
9228;SDS011;4649;42.644;23.284;2023-04-19T19:02:20;7.07;;;6.57;;
9228;SDS011;4649;42.644;23.284;2023-04-19T19:04:51;6.70;;;6.13;;
9228;SDS011;4649;42.644;23.284;2023-04-19T19:07:18;6.97;;;6.23;;
9228;SDS011;4649;42.644;23.284;2023-04-19T19:10:02;5.70;;;5.40;;
9228;SDS011;4649;42.644;23.284;2023-04-19T19:12:48;5.87;;;5.47;;
9228;SDS011;4649;42.644;23.284;2023-04-19T19:25:29;6.40;;;6.00;;
9228;SDS011;4649;42.644;23.284;2023-04-19T19:28:20;5.70;;;5.20;;
9228;SDS011;4649;42.644;23.284;2023-04-19T19:30:47;5.63;;;5.33;;
9228;SDS011;4649;42.644;23.284;2023-04-19T19:33:15;5.37;;;5.07;;
9228;SDS011;4649;42.644;23.284;2023-04-19T19:35:43;6.30;;;5.90;;
9228;SDS011;4649;42.644;23.284;2023-04-19T19:38:10;5.83;;;5.33;;
9228;SDS011;4649;42.644;23.284;2023-04-19T19:40:38;4.77;;;4.57;;
9228;SDS011;4649;42.644;23.284;2023-04-19T19:43:05;5.53;;;5.23;;
9228;SDS011;4649;42.644;23.284;2023-04-19T19:45:35;6.37;;;5.77;;
9228;SDS011;4649;42.644;23.284;2023-04-19T19:48:04;5.43;;;5.13;;
9228;SDS011;4649;42.644;23.284;2023-04-19T19:50:31;5.30;;;5.00;;
9228;SDS011;4649;42.644;23.284;2023-04-19T19:52:58;10.10;;;6.20;;
9228;SDS011;4649;42.644;23.284;2023-04-19T19:55:25;5.40;;;4.90;;
9228;SDS011;4649;42.644;23.284;2023-04-19T19:57:58;5.73;;;5.33;;
9228;SDS011;4649;42.644;23.284;2023-04-19T20:00:25;5.57;;;4.80;;
9228;SDS011;4649;42.644;23.284;2023-04-19T20:02:52;5.63;;;5.33;;
9228;SDS011;4649;42.644;23.284;2023-04-19T20:05:21;5.93;;;5.53;;
9228;SDS011;4649;42.644;23.284;2023-04-19T20:07:48;7.03;;;6.43;;
9228;SDS011;4649;42.644;23.284;2023-04-19T20:10:15;5.70;;;5.40;;
9228;SDS011;4649;42.644;23.284;2023-04-19T20:12:45;6.27;;;5.87;;
9228;SDS011;4649;42.644;23.284;2023-04-19T20:15:15;9.03;;;5.33;;
9228;SDS011;4649;42.644;23.284;2023-04-19T20:17:45;5.37;;;5.07;;
9228;SDS011;4649;42.644;23.284;2023-04-19T20:20:16;5.33;;;5.00;;
9228;SDS011;4649;42.644;23.284;2023-04-19T20:22:44;6.33;;;5.83;;
9228;SDS011;4649;42.644;23.284;2023-04-19T20:25:17;5.60;;;5.10;;
9228;SDS011;4649;42.644;23.284;2023-04-19T20:27:47;5.60;;;5.20;;
9228;SDS011;4649;42.644;23.284;2023-04-19T20:30:20;5.17;;;4.77;;
9228;SDS011;4649;42.644;23.284;2023-04-19T20:32:53;5.93;;;5.53;;
9228;SDS011;4649;42.644;23.284;2023-04-19T20:35:20;4.97;;;4.67;;
9228;SDS011;4649;42.644;23.284;2023-04-19T20:38:03;7.90;;;4.63;;
9228;SDS011;4649;42.644;23.284;2023-04-19T20:40:33;4.83;;;4.40;;
9228;SDS011;4649;42.644;23.284;2023-04-19T20:43:14;6.10;;;5.60;;
9228;SDS011;4649;42.644;23.284;2023-04-19T20:45:45;4.57;;;4.37;;
9228;SDS011;4649;42.644;23.284;2023-04-19T20:48:20;4.83;;;4.20;;
9228;SDS011;4649;42.644;23.284;2023-04-19T20:50:47;4.57;;;4.17;;
9228;SDS011;4649;42.644;23.284;2023-04-19T20:53:15;5.00;;;4.63;;
9228;SDS011;4649;42.644;23.284;2023-04-19T20:55:43;4.93;;;4.30;;
9228;SDS011;4649;42.644;23.284;2023-04-19T20:58:10;8.27;;;4.53;;
9228;SDS011;4649;42.644;23.284;2023-04-19T21:00:37;4.87;;;4.47;;
9228;SDS011;4649;42.644;23.284;2023-04-19T21:03:06;4.73;;;4.27;;
9228;SDS011;4649;42.644;23.284;2023-04-19T21:05:38;4.50;;;4.30;;
9228;SDS011;4649;42.644;23.284;2023-04-19T21:08:10;4.53;;;4.33;;
9228;SDS011;4649;42.644;23.284;2023-04-19T21:10:43;5.60;;;4.33;;
9228;SDS011;4649;42.644;23.284;2023-04-19T21:13:10;4.93;;;4.63;;
9228;SDS011;4649;42.644;23.284;2023-04-19T21:15:38;4.70;;;3.90;;
9228;SDS011;4649;42.644;23.284;2023-04-19T21:18:06;4.33;;;4.13;;
9228;SDS011;4649;42.644;23.284;2023-04-19T21:20:35;4.93;;;4.47;;
9228;SDS011;4649;42.644;23.284;2023-04-19T21:23:03;9.70;;;4.03;;
9228;SDS011;4649;42.644;23.284;2023-04-19T21:25:31;6.93;;;4.20;;
9228;SDS011;4649;42.644;23.284;2023-04-19T21:28:01;4.97;;;4.10;;
9228;SDS011;4649;42.644;23.284;2023-04-19T21:30:29;4.97;;;4.30;;
9228;SDS011;4649;42.644;23.284;2023-04-19T21:33:02;4.10;;;3.90;;
9228;SDS011;4649;42.644;23.284;2023-04-19T21:35:31;6.00;;;4.27;;
9228;SDS011;4649;42.644;23.284;2023-04-19T21:37:58;8.43;;;4.50;;
9228;SDS011;4649;42.644;23.284;2023-04-19T21:40:26;4.90;;;4.50;;
9228;SDS011;4649;42.644;23.284;2023-04-19T21:42:53;4.57;;;4.27;;
9228;SDS011;4649;42.644;23.284;2023-04-19T21:45:24;4.70;;;4.50;;
9228;SDS011;4649;42.644;23.284;2023-04-19T21:48:31;3.83;;;3.63;;
9228;SDS011;4649;42.644;23.284;2023-04-19T21:54:10;4.03;;;3.77;;
9228;SDS011;4649;42.644;23.284;2023-04-19T21:56:46;9.53;;;4.33;;
9228;SDS011;4649;42.644;23.284;2023-04-19T21:59:16;4.03;;;3.83;;
9228;SDS011;4649;42.644;23.284;2023-04-19T22:01:50;3.80;;;3.60;;
9228;SDS011;4649;42.644;23.284;2023-04-19T22:04:19;4.60;;;4.40;;
9228;SDS011;4649;42.644;23.284;2023-04-19T22:06:56;4.83;;;4.53;;
9228;SDS011;4649;42.644;23.284;2023-04-19T22:09:28;5.33;;;4.93;;
9228;SDS011;4649;42.644;23.284;2023-04-19T22:12:07;4.47;;;4.17;;
9228;SDS011;4649;42.644;23.284;2023-04-19T22:14:55;4.97;;;4.77;;
9228;SDS011;4649;42.644;23.284;2023-04-19T22:17:24;4.53;;;4.23;;
9228;SDS011;4649;42.644;23.284;2023-04-19T22:20:01;5.03;;;4.73;;
9228;SDS011;4649;42.644;23.284;2023-04-19T22:22:50;4.53;;;4.33;;
9228;SDS011;4649;42.644;23.284;2023-04-19T22:25:31;4.80;;;4.50;;
9228;SDS011;4649;42.644;23.284;2023-04-19T22:28:14;4.70;;;4.10;;
9228;SDS011;4649;42.644;23.284;2023-04-19T22:30:52;7.47;;;4.20;;
9228;SDS011;4649;42.644;23.284;2023-04-19T22:33:24;4.93;;;4.37;;
9228;SDS011;4649;42.644;23.284;2023-04-19T22:35:57;4.30;;;4.03;;
9228;SDS011;4649;42.644;23.284;2023-04-19T22:41:30;6.63;;;4.80;;
9228;SDS011;4649;42.644;23.284;2023-04-19T22:44:10;4.50;;;4.30;;
9228;SDS011;4649;42.644;23.284;2023-04-19T22:47:01;4.90;;;4.50;;
9228;SDS011;4649;42.644;23.284;2023-04-19T22:49:29;4.67;;;4.37;;
9228;SDS011;4649;42.644;23.284;2023-04-19T22:52:15;4.53;;;4.10;;
9228;SDS011;4649;42.644;23.284;2023-04-19T22:57:47;4.80;;;4.10;;
9228;SDS011;4649;42.644;23.284;2023-04-19T23:00:28;6.27;;;3.57;;
9228;SDS011;4649;42.644;23.284;2023-04-19T23:03:00;4.30;;;4.00;;
9228;SDS011;4649;42.644;23.284;2023-04-19T23:06:05;4.57;;;4.37;;
9228;SDS011;4649;42.644;23.284;2023-04-19T23:08:43;4.30;;;4.10;;
9228;SDS011;4649;42.644;23.284;2023-04-19T23:11:46;5.63;;;3.90;;
9228;SDS011;4649;42.644;23.284;2023-04-19T23:14:25;4.50;;;4.20;;
9228;SDS011;4649;42.644;23.284;2023-04-19T23:16:56;5.30;;;4.90;;
9228;SDS011;4649;42.644;23.284;2023-04-19T23:19:59;4.50;;;4.27;;
9228;SDS011;4649;42.644;23.284;2023-04-19T23:22:51;4.77;;;4.37;;
9228;SDS011;4649;42.644;23.284;2023-04-19T23:25:24;4.60;;;4.30;;
9228;SDS011;4649;42.644;23.284;2023-04-19T23:28:15;4.40;;;4.10;;
9228;SDS011;4649;42.644;23.284;2023-04-19T23:30:55;6.13;;;4.67;;
9228;SDS011;4649;42.644;23.284;2023-04-19T23:33:26;5.70;;;4.33;;
9228;SDS011;4649;42.644;23.284;2023-04-19T23:35:57;7.37;;;4.57;;
9228;SDS011;4649;42.644;23.284;2023-04-19T23:41:15;5.70;;;4.43;;
9228;SDS011;4649;42.644;23.284;2023-04-19T23:43:49;4.93;;;4.63;;
9228;SDS011;4649;42.644;23.284;2023-04-19T23:46:26;4.50;;;4.20;;
9228;SDS011;4649;42.644;23.284;2023-04-19T23:49:11;5.40;;;5.00;;
9228;SDS011;4649;42.644;23.284;2023-04-19T23:51:51;4.70;;;4.40;;
9228;SDS011;4649;42.644;23.284;2023-04-19T23:54:26;4.93;;;4.57;;
9228;SDS011;4649;42.644;23.284;2023-04-19T23:57:02;4.80;;;4.50;;
9228;SDS011;4649;42.644;23.284;2023-04-19T23:59:34;6.17;;;4.77;;
